Time;durP1;ratioP1;P1;durP2;ratioP2;P2;SDS_P1;SDS_P2;PMS_P1;PMS_P2;Temp;Humidity;BMP_temperature;BMP_pressure;BME280_temperature;BME280_humidity;BME280_pressure;Samples;Min_cycle;Max_cycle;Signal;HPM_P1;HPM_P2
2022/08/08 00:01:51;;;;;;;9.18;5.60;;;;;;;;;;5015328;28;20251;-62
2022/08/08 00:04:23;;;;;;;11.68;5.95;;;;;;;;;;5014425;28;20213;-63
2022/08/08 00:07:02;;;;;;;11.52;7.15;;;;;;;;;;5015448;28;20278;-63
2022/08/08 00:09:32;;;;;;;11.07;6.30;;;;;;;;;;5014531;28;20215;-63
2022/08/08 00:11:59;;;;;;;13.68;5.65;;;;;;;;;;5014224;28;20209;-62
2022/08/08 00:14:26;;;;;;;9.57;5.68;;;;;;;;;;5013952;28;20208;-63
2022/08/08 00:16:59;;;;;;;11.80;6.13;;;;;;;;;;5015198;28;20307;-63
2022/08/08 00:19:26;;;;;;;11.18;6.35;;;;;;;;;;5014928;28;20771;-63
2022/08/08 00:21:59;;;;;;;9.73;6.40;;;;;;;;;;5013104;28;20216;-62
2022/08/08 00:24:27;;;;;;;10.15;6.10;;;;;;;;;;5013698;28;20243;-62
2022/08/08 00:26:54;;;;;;;10.15;5.85;;;;;;;;;;5014160;28;20213;-63
2022/08/08 00:29:23;;;;;;;10.20;6.28;;;;;;;;;;5013144;28;20224;-63
2022/08/08 00:31:49;;;;;;;10.50;5.88;;;;;;;;;;4990439;28;20217;-63
2022/08/08 00:37:00;;;;;;;11.27;6.32;;;;;;;;;;5004414;28;20702;-63
2022/08/08 00:39:30;;;;;;;11.35;6.20;;;;;;;;;;5003436;28;20307;-63
2022/08/08 00:41:55;;;;;;;11.50;6.57;;;;;;;;;;5005233;28;20320;-62
2022/08/08 00:44:36;;;;;;;9.63;5.65;;;;;;;;;;5002186;28;20303;-63
2022/08/08 00:47:12;;;;;;;9.32;5.63;;;;;;;;;;4988926;28;20216;-63
2022/08/08 00:49:56;;;;;;;10.68;6.70;;;;;;;;;;4994617;28;20223;-63
2022/08/08 00:52:41;;;;;;;10.10;6.22;;;;;;;;;;4996578;28;20259;-63
2022/08/08 00:55:15;;;;;;;12.77;6.57;;;;;;;;;;5003974;28;20212;-63
2022/08/08 00:58:09;;;;;;;10.95;6.50;;;;;;;;;;5003331;28;20721;-63
2022/08/08 01:00:37;;;;;;;10.02;6.28;;;;;;;;;;5003348;28;20204;-63
2022/08/08 01:03:09;;;;;;;12.52;6.45;;;;;;;;;;5002846;28;20533;-63
2022/08/08 01:05:46;;;;;;;11.05;5.55;;;;;;;;;;4992759;28;20271;-63
2022/08/08 01:08:19;;;;;;;9.43;5.22;;;;;;;;;;4997019;28;20236;-63
2022/08/08 01:10:49;;;;;;;10.82;6.43;;;;;;;;;;4991787;28;20759;-63
2022/08/08 01:13:21;;;;;;;9.13;5.95;;;;;;;;;;4994035;28;20209;-63
2022/08/08 01:15:51;;;;;;;9.85;5.75;;;;;;;;;;5002352;28;20246;-62
2022/08/08 01:18:34;;;;;;;10.10;5.85;;;;;;;;;;5001977;28;20225;-62
2022/08/08 01:21:02;;;;;;;8.90;6.32;;;;;;;;;;5004427;28;20221;-63
2022/08/08 01:23:37;;;;;;;13.52;6.45;;;;;;;;;;5003911;28;20216;-62
2022/08/08 01:26:10;;;;;;;11.93;6.05;;;;;;;;;;5002279;28;20274;-62
2022/08/08 01:28:44;;;;;;;11.57;6.93;;;;;;;;;;5003405;28;20204;-63
2022/08/08 01:31:17;;;;;;;9.85;5.75;;;;;;;;;;4995166;28;20631;-63
2022/08/08 01:33:42;;;;;;;11.43;6.38;;;;;;;;;;4994403;28;20221;-63
2022/08/08 01:39:18;;;;;;;8.40;5.20;;;;;;;;;;4995999;28;20367;-62
2022/08/08 01:41:50;;;;;;;9.88;5.95;;;;;;;;;;5003024;28;20236;-62
2022/08/08 01:44:24;;;;;;;10.32;6.25;;;;;;;;;;5002554;28;20548;-63
2022/08/08 01:46:51;;;;;;;10.68;6.65;;;;;;;;;;5001814;28;20311;-62
2022/08/08 01:49:18;;;;;;;10.52;5.55;;;;;;;;;;5001935;28;20223;-62
2022/08/08 01:51:50;;;;;;;11.23;6.22;;;;;;;;;;5002138;28;20351;-62
2022/08/08 01:54:16;;;;;;;9.43;6.18;;;;;;;;;;4990745;28;20633;-62
2022/08/08 01:56:54;;;;;;;10.93;5.85;;;;;;;;;;4976405;28;20405;-63
2022/08/08 01:59:22;;;;;;;10.57;6.60;;;;;;;;;;4996259;28;20216;-62
2022/08/08 02:01:55;;;;;;;11.70;6.05;;;;;;;;;;5002472;28;20224;-62
2022/08/08 02:04:33;;;;;;;11.18;5.95;;;;;;;;;;5003112;28;20219;-62
2022/08/08 02:07:00;;;;;;;12.98;6.43;;;;;;;;;;5002097;28;20357;-62
2022/08/08 02:09:44;;;;;;;11.48;6.25;;;;;;;;;;4997953;28;20714;-63
2022/08/08 02:12:22;;;;;;;9.80;6.05;;;;;;;;;;4983338;28;20304;-62
2022/08/08 02:14:51;;;;;;;12.95;6.20;;;;;;;;;;5000570;28;20216;-62
2022/08/08 02:17:20;;;;;;;9.20;5.40;;;;;;;;;;4993722;28;20232;-62
2022/08/08 02:19:48;;;;;;;9.10;5.90;;;;;;;;;;4993740;28;20216;-62
2022/08/08 02:22:30;;;;;;;10.55;6.35;;;;;;;;;;4978992;28;20626;-62
2022/08/08 02:24:56;;;;;;;9.63;5.35;;;;;;;;;;5003505;28;20254;-62
2022/08/08 02:27:27;;;;;;;8.77;5.05;;;;;;;;;;5002681;28;20765;-62
2022/08/08 02:29:55;;;;;;;9.27;5.30;;;;;;;;;;5002963;28;20244;-62
2022/08/08 02:32:42;;;;;;;11.65;6.00;;;;;;;;;;5002373;28;20402;-62
2022/08/08 02:35:11;;;;;;;8.52;4.60;;;;;;;;;;5001966;28;20694;-62
2022/08/08 02:37:36;;;;;;;11.25;5.10;;;;;;;;;;4998217;28;20614;-62
2022/08/08 02:40:05;;;;;;;8.90;5.03;;;;;;;;;;4989640;28;20212;-62
2022/08/08 02:42:49;;;;;;;9.05;4.80;;;;;;;;;;4993931;28;20219;-62
2022/08/08 02:45:23;;;;;;;8.60;5.25;;;;;;;;;;4997203;28;20238;-62
2022/08/08 02:48:07;;;;;;;10.35;5.40;;;;;;;;;;5001321;28;20235;-62
2022/08/08 02:50:39;;;;;;;11.73;5.40;;;;;;;;;;5001993;28;20208;-62
2022/08/08 02:53:08;;;;;;;8.57;5.22;;;;;;;;;;4992629;28;20574;-62
2022/08/08 02:55:43;;;;;;;8.95;5.25;;;;;;;;;;5000921;28;20291;-62
2022/08/08 02:58:18;;;;;;;10.57;5.40;;;;;;;;;;5000283;28;20717;-62
2022/08/08 03:00:44;;;;;;;9.15;5.18;;;;;;;;;;4999010;28;20216;-62
2022/08/08 03:03:28;;;;;;;8.40;5.65;;;;;;;;;;4977520;28;20220;-62
2022/08/08 03:05:54;;;;;;;11.32;5.30;;;;;;;;;;4975390;28;20220;-62
2022/08/08 03:08:26;;;;;;;9.43;5.20;;;;;;;;;;4979431;28;20245;-62
2022/08/08 03:11:04;;;;;;;10.02;5.40;;;;;;;;;;4983100;28;20277;-62
2022/08/08 03:13:30;;;;;;;9.35;5.25;;;;;;;;;;4982885;28;20223;-62
2022/08/08 03:16:27;;;;;;;12.05;5.90;;;;;;;;;;4983455;28;20807;-62
2022/08/08 03:18:53;;;;;;;9.40;4.70;;;;;;;;;;4999906;28;20307;-62
2022/08/08 03:21:18;;;;;;;9.60;4.90;;;;;;;;;;5001543;28;20311;-62
2022/08/08 03:23:43;;;;;;;7.38;4.70;;;;;;;;;;4997828;28;20220;-62
2022/08/08 03:26:08;;;;;;;7.90;5.15;;;;;;;;;;4993406;28;20343;-62
2022/08/08 03:28:37;;;;;;;9.27;4.97;;;;;;;;;;4994740;28;20408;-62
2022/08/08 03:33:17;;;;;;;8.65;4.90;;;;;;;;;;4998773;28;20541;-62
2022/08/08 03:33:47;;;;;;;9.60;4.95;;;;;;;;;;5001867;28;20216;-62
2022/08/08 03:36:13;;;;;;;9.18;4.93;;;;;;;;;;4998276;28;20223;-62
2022/08/08 03:38:38;;;;;;;9.45;4.78;;;;;;;;;;4994691;28;20213;-62
2022/08/08 03:41:03;;;;;;;7.05;4.57;;;;;;;;;;5002205;28;20307;-63
2022/08/08 03:43:29;;;;;;;9.52;4.85;;;;;;;;;;5002299;28;20239;-63
2022/08/08 03:45:55;;;;;;;7.95;4.72;;;;;;;;;;4997150;28;20729;-64
2022/08/08 03:48:20;;;;;;;13.85;5.15;;;;;;;;;;4992394;28;20220;-63
2022/08/08 03:50:46;;;;;;;9.85;5.35;;;;;;;;;;4994056;28;20220;-63
2022/08/08 03:53:13;;;;;;;6.85;4.60;;;;;;;;;;4985928;28;20228;-63
2022/08/08 03:55:39;;;;;;;9.93;5.20;;;;;;;;;;5001714;28;20220;-62
2022/08/08 03:58:04;;;;;;;12.23;6.53;;;;;;;;;;5004244;28;20277;-63
2022/08/08 04:00:29;;;;;;;10.95;5.70;;;;;;;;;;5005505;28;20235;-63
2022/08/08 04:02:58;;;;;;;9.13;5.45;;;;;;;;;;5005972;28;20283;-63
2022/08/08 04:05:24;;;;;;;13.13;6.78;;;;;;;;;;5005542;28;20208;-64
2022/08/08 04:07:49;;;;;;;11.05;6.60;;;;;;;;;;5003863;28;20247;-63
2022/08/08 04:10:14;;;;;;;10.07;5.70;;;;;;;;;;4983051;28;20333;-63
2022/08/08 04:12:40;;;;;;;10.85;6.30;;;;;;;;;;4978592;28;20243;-63
2022/08/08 04:15:05;;;;;;;9.07;5.40;;;;;;;;;;4978622;28;20628;-63
2022/08/08 04:17:31;;;;;;;11.50;5.93;;;;;;;;;;4986121;28;20685;-63
2022/08/08 04:19:56;;;;;;;10.85;6.20;;;;;;;;;;4986033;28;20677;-63
2022/08/08 04:22:21;;;;;;;8.15;6.20;;;;;;;;;;4985389;28;20224;-63
2022/08/08 04:24:47;;;;;;;13.55;6.32;;;;;;;;;;4986127;28;20349;-64
2022/08/08 04:27:12;;;;;;;11.32;6.15;;;;;;;;;;4985660;28;20682;-63
2022/08/08 04:29:37;;;;;;;7.80;5.32;;;;;;;;;;4985297;28;20225;-63
2022/08/08 04:32:04;;;;;;;8.43;5.47;;;;;;;;;;4979080;28;20561;-63
2022/08/08 04:34:29;;;;;;;10.30;6.30;;;;;;;;;;4996622;28;20427;-63
2022/08/08 04:36:54;;;;;;;12.82;5.78;;;;;;;;;;4996764;28;20467;-63
2022/08/08 04:39:19;;;;;;;8.88;5.05;;;;;;;;;;4996540;28;20216;-63
2022/08/08 04:41:45;;;;;;;10.35;6.05;;;;;;;;;;5005082;28;20547;-62
2022/08/08 04:44:10;;;;;;;9.00;4.88;;;;;;;;;;5003897;28;20624;-62
2022/08/08 04:46:35;;;;;;;13.95;5.72;;;;;;;;;;5005320;28;20220;-64
2022/08/08 04:49:00;;;;;;;11.73;5.55;;;;;;;;;;5004054;28;20224;-63
2022/08/08 04:51:26;;;;;;;9.95;5.90;;;;;;;;;;5005021;28;20331;-64
2022/08/08 04:53:51;;;;;;;9.18;5.88;;;;;;;;;;4984915;28;20232;-64
2022/08/08 04:56:17;;;;;;;12.40;4.93;;;;;;;;;;4976546;28;20232;-63
2022/08/08 04:58:42;;;;;;;8.77;4.45;;;;;;;;;;4994868;28;20750;-64
2022/08/08 05:01:07;;;;;;;8.57;4.73;;;;;;;;;;4998491;28;20423;-64
2022/08/08 05:03:33;;;;;;;9.63;6.00;;;;;;;;;;4992034;28;20504;-64
2022/08/08 05:05:58;;;;;;;8.43;4.10;;;;;;;;;;4988451;28;20216;-63
2022/08/08 05:08:25;;;;;;;6.88;4.45;;;;;;;;;;5018057;28;20702;-63
2022/08/08 05:10:50;;;;;;;8.07;4.68;;;;;;;;;;4996147;28;20216;-62
2022/08/08 05:13:16;;;;;;;8.38;3.97;;;;;;;;;;4994413;28;20209;-62
2022/08/08 05:15:41;;;;;;;6.60;4.30;;;;;;;;;;5008435;28;20227;-62
2022/08/08 05:18:06;;;;;;;9.65;4.32;;;;;;;;;;5016213;28;20243;-63
2022/08/08 05:20:32;;;;;;;8.68;4.10;;;;;;;;;;5023538;28;20279;-64
2022/08/08 05:22:57;;;;;;;6.25;4.10;;;;;;;;;;5021953;28;20239;-63
2022/08/08 05:25:22;;;;;;;7.03;3.78;;;;;;;;;;5023651;28;20200;-63
2022/08/08 05:27:48;;;;;;;7.80;3.78;;;;;;;;;;5022761;28;20308;-63
2022/08/08 05:30:13;;;;;;;6.68;3.78;;;;;;;;;;5023123;28;20207;-64
2022/08/08 05:32:38;;;;;;;6.82;3.85;;;;;;;;;;5012259;28;20279;-64
2022/08/08 05:35:04;;;;;;;6.95;3.60;;;;;;;;;;5009239;28;20569;-62
2022/08/08 05:37:30;;;;;;;5.20;3.13;;;;;;;;;;5013595;28;20224;-63
2022/08/08 05:39:55;;;;;;;8.30;3.40;;;;;;;;;;4998195;28;20229;-63
2022/08/08 05:42:23;;;;;;;9.10;3.05;;;;;;;;;;4994038;28;20217;-63
2022/08/08 05:44:48;;;;;;;8.07;3.17;;;;;;;;;;4992764;28;20299;-63
2022/08/08 05:47:13;;;;;;;7.13;2.90;;;;;;;;;;4992163;28;20241;-62
2022/08/08 05:49:39;;;;;;;8.23;2.65;;;;;;;;;;4994072;28;20692;-63
2022/08/08 05:52:04;;;;;;;7.05;2.50;;;;;;;;;;4994363;28;20221;-63
2022/08/08 05:54:30;;;;;;;5.38;2.60;;;;;;;;;;5013150;28;20212;-64
2022/08/08 05:56:55;;;;;;;5.22;2.40;;;;;;;;;;5013686;28;20232;-64
2022/08/08 05:59:21;;;;;;;6.63;2.60;;;;;;;;;;5011380;28;20227;-64
2022/08/08 06:01:53;;;;;;;6.05;2.47;;;;;;;;;;5012388;28;20224;-64
2022/08/08 06:04:21;;;;;;;7.43;2.20;;;;;;;;;;5012674;28;20307;-64
2022/08/08 06:06:47;;;;;;;4.03;2.08;;;;;;;;;;5012789;28;20244;-64
2022/08/08 06:09:12;;;;;;;7.80;2.50;;;;;;;;;;5012869;28;20722;-64
2022/08/08 06:11:37;;;;;;;5.45;2.28;;;;;;;;;;5011823;28;20705;-64
2022/08/08 06:14:04;;;;;;;8.45;2.25;;;;;;;;;;5012398;28;20215;-64
2022/08/08 06:16:31;;;;;;;8.60;2.38;;;;;;;;;;5013347;28;20213;-64
2022/08/08 06:18:56;;;;;;;6.63;2.88;;;;;;;;;;5012310;28;20300;-63
2022/08/08 06:21:22;;;;;;;5.60;2.15;;;;;;;;;;5010626;28;20304;-64
2022/08/08 06:23:47;;;;;;;6.68;2.30;;;;;;;;;;5011934;28;20220;-64
2022/08/08 06:26:12;;;;;;;7.88;2.60;;;;;;;;;;5012628;28;20216;-64
2022/08/08 06:28:52;;;;;;;6.22;2.30;;;;;;;;;;5011606;28;20223;-64
2022/08/08 06:31:19;;;;;;;4.40;2.30;;;;;;;;;;5011328;28;20213;-64
2022/08/08 06:33:47;;;;;;;6.00;2.50;;;;;;;;;;5012397;28;20216;-64
2022/08/08 06:36:12;;;;;;;5.78;2.13;;;;;;;;;;5012014;28;20228;-64
2022/08/08 06:38:38;;;;;;;5.88;2.38;;;;;;;;;;5012039;28;20250;-65
2022/08/08 06:41:04;;;;;;;6.28;2.25;;;;;;;;;;5012197;28;20295;-65
2022/08/08 06:43:30;;;;;;;7.78;2.15;;;;;;;;;;5012452;28;20255;-64
2022/08/08 06:45:55;;;;;;;5.18;2.22;;;;;;;;;;5012886;28;20243;-64
2022/08/08 06:48:20;;;;;;;5.57;2.00;;;;;;;;;;5010955;28;20216;-65
2022/08/08 06:50:46;;;;;;;6.05;1.90;;;;;;;;;;5012365;28;20220;-64
2022/08/08 06:53:11;;;;;;;4.93;1.63;;;;;;;;;;5010957;28;20715;-64
2022/08/08 06:55:36;;;;;;;5.95;2.00;;;;;;;;;;5012436;28;20212;-65
2022/08/08 06:58:01;;;;;;;5.43;2.00;;;;;;;;;;5011138;28;20224;-65
2022/08/08 07:00:30;;;;;;;4.55;2.20;;;;;;;;;;5012584;28;20213;-64
2022/08/08 07:02:57;;;;;;;4.75;1.85;;;;;;;;;;5010628;28;20216;-64
2022/08/08 07:05:23;;;;;;;6.88;1.90;;;;;;;;;;5012295;28;20222;-65
2022/08/08 07:07:51;;;;;;;8.52;1.90;;;;;;;;;;5012499;28;20224;-66
2022/08/08 07:10:19;;;;;;;7.28;2.03;;;;;;;;;;5012015;28;20216;-65
2022/08/08 07:12:47;;;;;;;4.85;2.20;;;;;;;;;;5011464;28;20217;-66
2022/08/08 07:15:12;;;;;;;5.78;2.00;;;;;;;;;;5012068;28;20239;-66
2022/08/08 07:17:43;;;;;;;7.40;2.00;;;;;;;;;;5010540;28;20255;-66
2022/08/08 07:20:08;;;;;;;8.82;2.25;;;;;;;;;;4991615;28;20210;-66
2022/08/08 07:22:52;;;;;;;7.75;2.47;;;;;;;;;;4992811;28;20209;-66
2022/08/08 07:25:17;;;;;;;8.38;2.15;;;;;;;;;;4992264;28;20205;-66
2022/08/08 07:27:46;;;;;;;6.05;1.70;;;;;;;;;;4991692;28;20231;-66
2022/08/08 07:30:12;;;;;;;6.28;1.90;;;;;;;;;;4992108;28;20221;-65
2022/08/08 07:32:37;;;;;;;7.28;2.20;;;;;;;;;;4995957;28;20681;-66
2022/08/08 07:35:03;;;;;;;6.50;1.70;;;;;;;;;;4996418;28;20561;-66
2022/08/08 07:37:28;;;;;;;4.32;1.70;;;;;;;;;;4995625;28;20221;-66
2022/08/08 07:39:53;;;;;;;8.10;2.00;;;;;;;;;;5014715;28;20220;-66
2022/08/08 07:42:19;;;;;;;5.35;1.45;;;;;;;;;;5014447;28;20220;-66
2022/08/08 07:44:44;;;;;;;7.93;2.10;;;;;;;;;;5014628;28;20223;-66
2022/08/08 07:47:09;;;;;;;6.35;1.63;;;;;;;;;;5013261;28;20212;-65
2022/08/08 07:49:35;;;;;;;4.85;1.67;;;;;;;;;;5016146;28;20219;-66
2022/08/08 07:52:00;;;;;;;5.45;1.50;;;;;;;;;;5015622;28;20212;-67
2022/08/08 07:54:31;;;;;;;5.65;1.42;;;;;;;;;;5014681;28;20216;-67
2022/08/08 07:57:15;;;;;;;4.43;1.55;;;;;;;;;;5015764;28;20224;-67
2022/08/08 07:59:53;;;;;;;4.55;1.58;;;;;;;;;;5013985;28;21356;-67
2022/08/08 08:02:20;;;;;;;5.05;1.40;;;;;;;;;;5015344;28;20224;-66
2022/08/08 08:04:46;;;;;;;6.30;1.40;;;;;;;;;;5015419;28;20585;-66
2022/08/08 08:07:11;;;;;;;3.75;1.15;;;;;;;;;;5013795;28;20237;-66
2022/08/08 08:09:37;;;;;;;3.67;1.00;;;;;;;;;;5014552;28;20577;-67
2022/08/08 08:12:02;;;;;;;5.53;1.20;;;;;;;;;;5015426;28;20259;-66
2022/08/08 08:14:29;;;;;;;3.95;1.20;;;;;;;;;;5014054;28;20601;-67
2022/08/08 08:16:54;;;;;;;3.30;1.08;;;;;;;;;;5015165;28;20311;-67
2022/08/08 08:19:21;;;;;;;6.32;1.40;;;;;;;;;;5014994;28;20304;-66
2022/08/08 08:21:47;;;;;;;6.15;1.20;;;;;;;;;;5013914;28;20667;-66
2022/08/08 08:24:12;;;;;;;4.05;1.33;;;;;;;;;;5013764;28;20216;-67
2022/08/08 08:26:38;;;;;;;5.25;1.33;;;;;;;;;;5014072;28;20226;-67
2022/08/08 08:29:04;;;;;;;5.05;1.70;;;;;;;;;;5014681;28;20208;-67
2022/08/08 08:31:29;;;;;;;4.47;1.23;;;;;;;;;;5014974;28;20216;-67
2022/08/08 08:33:54;;;;;;;2.13;1.05;;;;;;;;;;5015127;28;20628;-67
2022/08/08 08:36:20;;;;;;;4.75;1.00;;;;;;;;;;5013144;28;20230;-67
2022/08/08 08:38:45;;;;;;;5.53;1.20;;;;;;;;;;5014063;28;20757;-67
2022/08/08 08:41:11;;;;;;;5.00;1.35;;;;;;;;;;5014296;28;20212;-67
2022/08/08 08:43:36;;;;;;;3.15;1.00;;;;;;;;;;5014521;28;20603;-66
2022/08/08 08:46:02;;;;;;;3.05;1.20;;;;;;;;;;5014092;28;20213;-67
2022/08/08 08:48:27;;;;;;;6.60;1.08;;;;;;;;;;5013381;28;20330;-67
2022/08/08 08:50:53;;;;;;;8.48;1.38;;;;;;;;;;5013704;28;20209;-67
2022/08/08 08:53:18;;;;;;;4.25;1.15;;;;;;;;;;5014479;28;20562;-67
2022/08/08 08:55:43;;;;;;;5.50;1.10;;;;;;;;;;5014584;28;20212;-66
2022/08/08 08:58:12;;;;;;;6.18;0.93;;;;;;;;;;5014335;28;20229;-67
2022/08/08 09:00:38;;;;;;;4.32;1.00;;;;;;;;;;5013135;28;20214;-67
2022/08/08 09:03:07;;;;;;;3.13;0.80;;;;;;;;;;5012613;28;20212;-67
2022/08/08 09:05:34;;;;;;;2.97;0.88;;;;;;;;;;5014791;28;20304;-66
2022/08/08 09:08:00;;;;;;;3.15;0.82;;;;;;;;;;5013309;28;20235;-66
2022/08/08 09:10:25;;;;;;;5.65;1.10;;;;;;;;;;5012524;28;20657;-66
2022/08/08 09:12:50;;;;;;;2.65;1.08;;;;;;;;;;5013387;28;20243;-66
2022/08/08 09:15:16;;;;;;;4.55;1.00;;;;;;;;;;5012750;28;20216;-66
2022/08/08 09:17:41;;;;;;;2.38;0.73;;;;;;;;;;5013940;28;20308;-67
2022/08/08 09:20:07;;;;;;;3.33;1.00;;;;;;;;;;5007722;28;20216;-67
2022/08/08 09:22:33;;;;;;;4.03;0.80;;;;;;;;;;5021137;28;20293;-67
2022/08/08 09:24:59;;;;;;;4.97;0.95;;;;;;;;;;5033435;28;20208;-67
2022/08/08 09:27:24;;;;;;;2.40;0.88;;;;;;;;;;5032610;28;20212;-66
2022/08/08 09:29:50;;;;;;;3.42;0.73;;;;;;;;;;5032654;28;20219;-67
2022/08/08 09:32:17;;;;;;;2.50;0.95;;;;;;;;;;5033099;28;20741;-66
2022/08/08 09:34:42;;;;;;;3.75;1.02;;;;;;;;;;5032237;28;20223;-66
2022/08/08 09:37:08;;;;;;;2.30;0.82;;;;;;;;;;5032085;28;20224;-67
2022/08/08 09:39:40;;;;;;;2.95;1.00;;;;;;;;;;5014550;28;20282;-66
2022/08/08 09:42:05;;;;;;;4.13;0.82;;;;;;;;;;5012216;28;20213;-67
2022/08/08 09:44:35;;;;;;;5.78;1.00;;;;;;;;;;5012103;28;20205;-67
2022/08/08 09:47:01;;;;;;;3.13;0.90;;;;;;;;;;5012257;28;20216;-66
2022/08/08 09:49:27;;;;;;;3.88;0.80;;;;;;;;;;5012397;28;20255;-67
2022/08/08 09:51:52;;;;;;;3.53;0.70;;;;;;;;;;5011703;28;21015;-67
2022/08/08 09:54:18;;;;;;;5.15;1.00;;;;;;;;;;5012408;28;20228;-66
2022/08/08 09:56:46;;;;;;;4.80;1.00;;;;;;;;;;5011409;28;20235;-67
2022/08/08 09:59:11;;;;;;;4.63;1.02;;;;;;;;;;5011756;28;20228;-66
2022/08/08 10:01:37;;;;;;;3.63;0.80;;;;;;;;;;5013552;28;20205;-66
2022/08/08 10:04:02;;;;;;;2.20;0.82;;;;;;;;;;5013112;28;20774;-66
2022/08/08 10:06:27;;;;;;;4.10;0.80;;;;;;;;;;5011043;28;20221;-66
2022/08/08 10:08:53;;;;;;;3.58;0.82;;;;;;;;;;5012166;28;20232;-66
2022/08/08 10:11:20;;;;;;;6.70;1.05;;;;;;;;;;5011747;28;20216;-66
2022/08/08 10:13:52;;;;;;;3.85;0.85;;;;;;;;;;5011664;28;20259;-66
2022/08/08 10:16:17;;;;;;;2.83;0.70;;;;;;;;;;5013063;28;20541;-66
2022/08/08 10:18:42;;;;;;;2.90;0.70;;;;;;;;;;5011960;28;20235;-66
2022/08/08 10:21:08;;;;;;;3.13;1.10;;;;;;;;;;5010442;28;20223;-66
2022/08/08 10:23:33;;;;;;;3.47;0.93;;;;;;;;;;5013315;28;20228;-66
2022/08/08 10:25:59;;;;;;;1.95;0.70;;;;;;;;;;5013255;28;20220;-66
2022/08/08 10:28:24;;;;;;;2.05;0.80;;;;;;;;;;5011160;28;20664;-66
2022/08/08 10:30:57;;;;;;;5.85;0.80;;;;;;;;;;5012873;28;20247;-66
2022/08/08 10:33:29;;;;;;;5.30;1.00;;;;;;;;;;5012682;28;20208;-66
2022/08/08 10:35:55;;;;;;;2.58;0.80;;;;;;;;;;5012674;28;20227;-66
2022/08/08 10:38:20;;;;;;;3.13;0.88;;;;;;;;;;5012523;28;20236;-66
2022/08/08 10:40:49;;;;;;;4.22;0.80;;;;;;;;;;5012571;28;20224;-66
2022/08/08 10:43:14;;;;;;;2.80;0.77;;;;;;;;;;5012750;28;20220;-66
2022/08/08 10:45:41;;;;;;;2.90;0.80;;;;;;;;;;5011616;28;20212;-66
2022/08/08 10:48:08;;;;;;;2.15;0.90;;;;;;;;;;5012069;28;20216;-66
2022/08/08 10:50:34;;;;;;;7.07;1.40;;;;;;;;;;5012721;28;20208;-66
2022/08/08 10:53:01;;;;;;;3.22;1.00;;;;;;;;;;5011024;28;20269;-66
2022/08/08 10:55:26;;;;;;;6.20;1.00;;;;;;;;;;5012190;28;20335;-66
2022/08/08 10:57:51;;;;;;;3.78;0.85;;;;;;;;;;5012806;28;20683;-66
2022/08/08 11:00:23;;;;;;;3.47;0.90;;;;;;;;;;5012233;28;20213;-66
2022/08/08 11:02:49;;;;;;;2.90;0.93;;;;;;;;;;5010629;28;20274;-66
2022/08/08 11:05:14;;;;;;;3.65;0.90;;;;;;;;;;5011924;28;20236;-66
2022/08/08 11:07:40;;;;;;;2.78;0.77;;;;;;;;;;5012209;28;20236;-66
2022/08/08 11:10:07;;;;;;;3.42;1.08;;;;;;;;;;5011880;28;20209;-66
2022/08/08 11:12:33;;;;;;;3.67;0.95;;;;;;;;;;5012737;28;20204;-66
2022/08/08 11:15:00;;;;;;;4.07;0.85;;;;;;;;;;5012487;28;20223;-66
2022/08/08 11:17:29;;;;;;;3.70;0.85;;;;;;;;;;5011507;28;20254;-66
2022/08/08 11:19:54;;;;;;;5.45;0.88;;;;;;;;;;5011937;28;20692;-66
2022/08/08 11:22:26;;;;;;;4.53;0.95;;;;;;;;;;5010268;28;20315;-66
2022/08/08 11:24:52;;;;;;;2.33;0.90;;;;;;;;;;5011187;28;20212;-65
2022/08/08 11:27:18;;;;;;;4.57;0.98;;;;;;;;;;5011649;28;20227;-66
2022/08/08 11:29:43;;;;;;;4.32;0.93;;;;;;;;;;5010597;28;20216;-66
2022/08/08 11:32:08;;;;;;;6.13;0.90;;;;;;;;;;5008788;28;20755;-66
2022/08/08 11:34:34;;;;;;;1.90;0.70;;;;;;;;;;5011586;28;20634;-66
2022/08/08 11:37:00;;;;;;;3.50;0.90;;;;;;;;;;5019079;28;20679;-66
2022/08/08 11:39:25;;;;;;;2.80;0.98;;;;;;;;;;5013562;28;20271;-66
2022/08/08 11:41:50;;;;;;;4.28;1.00;;;;;;;;;;5011819;28;20222;-66
2022/08/08 11:44:15;;;;;;;2.22;0.77;;;;;;;;;;5009803;28;20571;-66
2022/08/08 11:46:41;;;;;;;3.80;1.00;;;;;;;;;;5010869;28;20219;-68
2022/08/08 11:49:06;;;;;;;4.38;0.88;;;;;;;;;;5010869;28;20706;-67
2022/08/08 11:51:32;;;;;;;2.60;0.95;;;;;;;;;;5012571;28;20250;-67
2022/08/08 11:53:57;;;;;;;2.17;0.70;;;;;;;;;;5003595;28;20217;-66
2022/08/08 11:56:22;;;;;;;2.20;0.80;;;;;;;;;;4985482;28;20360;-67
2022/08/08 11:58:48;;;;;;;4.38;1.05;;;;;;;;;;4981248;28;20213;-67
2022/08/08 12:01:14;;;;;;;4.57;0.75;;;;;;;;;;4995379;28;20209;-66
2022/08/08 12:03:44;;;;;;;4.25;1.00;;;;;;;;;;4985876;28;20961;-65
2022/08/08 12:06:11;;;;;;;2.45;0.80;;;;;;;;;;4989590;28;20295;-65
2022/08/08 12:08:37;;;;;;;2.05;0.90;;;;;;;;;;5004861;28;20224;-66
2022/08/08 12:11:03;;;;;;;3.83;0.90;;;;;;;;;;4994665;28;20225;-66
2022/08/08 12:13:30;;;;;;;5.35;0.80;;;;;;;;;;5003382;28;20223;-65
2022/08/08 12:16:06;;;;;;;5.20;1.00;;;;;;;;;;5001467;28;20219;-65
2022/08/08 12:18:32;;;;;;;4.43;0.90;;;;;;;;;;4986592;28;20266;-65
2022/08/08 12:20:57;;;;;;;3.95;0.80;;;;;;;;;;4992464;28;21213;-66
2022/08/08 12:23:27;;;;;;;5.95;0.80;;;;;;;;;;4989734;28;20215;-66
2022/08/08 12:25:53;;;;;;;4.45;0.85;;;;;;;;;;5006750;28;20613;-66
2022/08/08 12:28:18;;;;;;;2.30;0.68;;;;;;;;;;4996242;28;20302;-65
2022/08/08 12:30:44;;;;;;;3.45;0.90;;;;;;;;;;5000450;28;20220;-66
2022/08/08 12:33:17;;;;;;;4.30;0.90;;;;;;;;;;4995447;28;20246;-67
2022/08/08 12:35:42;;;;;;;4.15;0.93;;;;;;;;;;4991085;28;20223;-67
2022/08/08 12:38:07;;;;;;;3.15;0.90;;;;;;;;;;4990493;28;20224;-66
2022/08/08 12:40:42;;;;;;;5.07;0.90;;;;;;;;;;4999439;28;20237;-67
2022/08/08 12:43:07;;;;;;;4.45;0.88;;;;;;;;;;4991491;28;20220;-67
2022/08/08 12:45:34;;;;;;;2.50;0.90;;;;;;;;;;4981928;28;20295;-66
2022/08/08 12:48:00;;;;;;;2.05;0.80;;;;;;;;;;4988704;28;20254;-66
2022/08/08 12:50:25;;;;;;;4.57;0.90;;;;;;;;;;5003439;28;20208;-66
2022/08/08 12:52:54;;;;;;;3.88;0.85;;;;;;;;;;5003818;28;20626;-66
2022/08/08 12:55:19;;;;;;;3.75;0.82;;;;;;;;;;5002324;28;20205;-67
2022/08/08 12:57:45;;;;;;;1.58;0.80;;;;;;;;;;4992614;28;20306;-66
2022/08/08 13:00:11;;;;;;;3.67;1.20;;;;;;;;;;4994073;28;20220;-65
2022/08/08 13:02:38;;;;;;;5.45;1.10;;;;;;;;;;4990200;28;20209;-66
2022/08/08 13:05:04;;;;;;;4.22;0.70;;;;;;;;;;4989726;28;20223;-65
2022/08/08 13:07:34;;;;;;;3.30;1.00;;;;;;;;;;4980789;28;20568;-66
2022/08/08 13:09:59;;;;;;;3.38;1.10;;;;;;;;;;4995232;28;20205;-66
2022/08/08 13:12:26;;;;;;;5.75;1.02;;;;;;;;;;4996687;28;20221;-65
2022/08/08 13:14:51;;;;;;;3.90;0.70;;;;;;;;;;5005620;28;20303;-65
2022/08/08 13:17:18;;;;;;;2.28;0.85;;;;;;;;;;4992669;28;20421;-65
2022/08/08 13:19:43;;;;;;;2.22;0.80;;;;;;;;;;4996833;28;20239;-65
2022/08/08 13:22:09;;;;;;;3.85;1.23;;;;;;;;;;4995000;28;20295;-66
2022/08/08 13:24:35;;;;;;;5.35;0.63;;;;;;;;;;4994517;28;20270;-66
2022/08/08 13:27:01;;;;;;;3.33;0.80;;;;;;;;;;4982344;28;20221;-65
2022/08/08 13:29:26;;;;;;;2.78;0.93;;;;;;;;;;4994999;28;20219;-66
2022/08/08 13:31:52;;;;;;;1.75;0.68;;;;;;;;;;5003338;28;20264;-65
2022/08/08 13:34:19;;;;;;;2.22;0.60;;;;;;;;;;5000712;28;20220;-65
2022/08/08 13:36:44;;;;;;;2.55;0.80;;;;;;;;;;5006426;28;20231;-69
2022/08/08 13:39:12;;;;;;;2.22;0.73;;;;;;;;;;4993300;28;20225;-64
2022/08/08 13:41:37;;;;;;;3.45;0.88;;;;;;;;;;4998924;28;20228;-65
2022/08/08 13:44:02;;;;;;;2.25;0.80;;;;;;;;;;4987395;28;20229;-65
2022/08/08 13:46:28;;;;;;;2.03;0.70;;;;;;;;;;4986569;28;20209;-65
2022/08/08 13:48:53;;;;;;;4.40;0.70;;;;;;;;;;4980678;28;20324;-64
2022/08/08 13:51:18;;;;;;;2.90;0.80;;;;;;;;;;4979790;28;20213;-65
2022/08/08 13:53:52;;;;;;;1.20;0.70;;;;;;;;;;4994684;28;20224;-65
2022/08/08 13:56:26;;;;;;;2.90;0.95;;;;;;;;;;5006180;28;20621;-65
2022/08/08 13:58:51;;;;;;;4.50;0.73;;;;;;;;;;5005256;28;20274;-65
2022/08/08 14:01:17;;;;;;;1.83;0.73;;;;;;;;;;5004650;28;20220;-64
2022/08/08 14:03:53;;;;;;;4.85;0.80;;;;;;;;;;4997067;28;20240;-64
2022/08/08 14:06:19;;;;;;;4.07;0.88;;;;;;;;;;4999332;28;20279;-69
2022/08/08 14:08:44;;;;;;;2.00;0.70;;;;;;;;;;4989843;28;20574;-63
2022/08/08 14:11:12;;;;;;;2.45;0.70;;;;;;;;;;4987254;28;20244;-67
2022/08/08 14:13:38;;;;;;;3.28;0.80;;;;;;;;;;4981465;28;20857;-66
2022/08/08 14:16:04;;;;;;;3.55;0.82;;;;;;;;;;4993455;28;20212;-66
2022/08/08 14:18:30;;;;;;;2.72;0.82;;;;;;;;;;4994057;28;20232;-66
2022/08/08 14:20:59;;;;;;;2.67;0.75;;;;;;;;;;5004069;28;20239;-66
2022/08/08 14:23:25;;;;;;;1.65;0.75;;;;;;;;;;5004476;28;20240;-66
2022/08/08 14:25:56;;;;;;;2.50;0.77;;;;;;;;;;5006308;28;20321;-65
2022/08/08 14:28:22;;;;;;;2.55;0.80;;;;;;;;;;5006025;28;20917;-63
2022/08/08 14:30:47;;;;;;;4.95;0.90;;;;;;;;;;4998710;28;20213;-66
2022/08/08 14:33:23;;;;;;;3.65;1.05;;;;;;;;;;4983227;28;20287;-66
2022/08/08 14:35:57;;;;;;;3.45;0.85;;;;;;;;;;4997312;28;20223;-66
2022/08/08 14:38:27;;;;;;;2.90;0.70;;;;;;;;;;4982148;28;20936;-66
2022/08/08 14:40:53;;;;;;;3.70;0.77;;;;;;;;;;5004938;28;20230;-66
2022/08/08 14:43:19;;;;;;;4.10;0.80;;;;;;;;;;5005682;28;20224;-66
2022/08/08 14:45:46;;;;;;;3.22;0.80;;;;;;;;;;4999144;28;20205;-66
2022/08/08 14:48:11;;;;;;;2.95;0.77;;;;;;;;;;4986518;28;20229;-66
2022/08/08 14:50:37;;;;;;;2.72;0.70;;;;;;;;;;4988191;28;20205;-66